createdAt,value
2023-05-21T00:01:09.450Z,13.03
2023-05-21T00:03:37.357Z,12.17
2023-05-21T00:06:06.491Z,12.77
2023-05-21T00:08:35.710Z,12.27
2023-05-21T00:11:03.532Z,13.30
2023-05-21T00:13:31.359Z,13.60
2023-05-21T00:15:59.223Z,12.20
2023-05-21T00:18:27.084Z,13.30
2023-05-21T00:20:54.923Z,13.13
2023-05-21T00:23:22.763Z,13.90
2023-05-21T00:25:51.939Z,13.57
2023-05-21T00:28:19.812Z,13.10
2023-05-21T00:30:47.756Z,12.90
2023-05-21T00:33:15.772Z,14.03
2023-05-21T00:35:43.611Z,13.17
2023-05-21T00:38:11.430Z,13.93
2023-05-21T00:40:41.200Z,14.23
2023-05-21T00:43:10.713Z,13.80
2023-05-21T00:45:39.697Z,13.20
2023-05-21T00:48:08.824Z,12.50
2023-05-21T00:50:39.637Z,12.93
2023-05-21T00:53:09.599Z,12.77
2023-05-21T00:55:38.362Z,13.07
2023-05-21T00:58:06.778Z,13.20
2023-05-21T01:00:37.439Z,13.27
2023-05-21T01:03:06.154Z,12.50
2023-05-21T01:05:34.373Z,11.90
2023-05-21T01:08:02.902Z,13.10
2023-05-21T01:10:31.261Z,13.30
2023-05-21T01:13:00.201Z,14.90
2023-05-21T01:15:28.437Z,14.20
2023-05-21T01:17:57.729Z,13.30
2023-05-21T01:20:26.707Z,12.50
2023-05-21T01:22:56.971Z,13.33
2023-05-21T01:25:25.601Z,12.90
2023-05-21T01:27:53.516Z,12.73
2023-05-21T01:30:23.259Z,13.00
2023-05-21T01:32:57.628Z,13.87
2023-05-21T01:35:30.686Z,14.03
2023-05-21T01:38:09.979Z,14.27
2023-05-21T01:40:41.481Z,13.27
2023-05-21T01:43:10.393Z,15.03
2023-05-21T01:45:41.440Z,14.57
2023-05-21T01:48:11.332Z,14.47
2023-05-21T01:50:41.415Z,13.50
2023-05-21T01:53:10.661Z,14.73
2023-05-21T01:55:41.843Z,14.33
2023-05-21T01:58:10.081Z,13.97
2023-05-21T02:00:39.959Z,14.00
2023-05-21T02:03:08.021Z,13.80
2023-05-21T02:05:36.255Z,15.73
2023-05-21T02:08:05.441Z,14.40
2023-05-21T02:10:34.808Z,14.40
2023-05-21T02:13:02.671Z,14.80
2023-05-21T02:15:30.659Z,14.73
2023-05-21T02:17:58.579Z,15.20
2023-05-21T02:20:26.476Z,14.97
2023-05-21T02:22:54.302Z,15.37
2023-05-21T02:25:22.324Z,15.43
2023-05-21T02:27:53.562Z,14.67
2023-05-21T02:30:21.756Z,15.50
2023-05-21T02:32:50.706Z,16.17
2023-05-21T02:35:18.639Z,15.17
2023-05-21T02:37:46.504Z,16.63
2023-05-21T02:40:14.543Z,15.23
2023-05-21T02:42:42.567Z,15.00
2023-05-21T02:45:13.504Z,14.63
2023-05-21T02:47:41.688Z,15.47
2023-05-21T02:50:10.381Z,15.70
2023-05-21T02:52:38.231Z,15.23
2023-05-21T02:55:06.932Z,15.87
2023-05-21T02:57:34.748Z,16.73
2023-05-21T03:00:03.750Z,16.57
2023-05-21T03:02:33.022Z,17.30
2023-05-21T03:05:00.970Z,16.20
2023-05-21T03:07:28.860Z,16.50
2023-05-21T03:09:56.669Z,17.70
2023-05-21T03:12:24.548Z,16.50
2023-05-21T03:14:52.400Z,16.43
2023-05-21T03:17:20.652Z,15.43
2023-05-21T03:19:50.065Z,16.30
2023-05-21T03:22:17.882Z,17.10
2023-05-21T03:24:46.288Z,16.67
2023-05-21T03:27:14.202Z,16.80
2023-05-21T03:29:43.199Z,16.13
2023-05-21T03:32:11.397Z,17.03
2023-05-21T03:34:39.230Z,17.90
2023-05-21T03:37:08.428Z,17.40
2023-05-21T03:39:36.259Z,17.70
2023-05-21T03:42:04.118Z,17.67
2023-05-21T03:44:32.595Z,19.43
2023-05-21T03:47:00.481Z,17.70
2023-05-21T03:49:28.314Z,19.30
2023-05-21T03:51:56.128Z,17.20
2023-05-21T03:54:25.690Z,17.30
2023-05-21T03:56:53.557Z,19.57
2023-05-21T03:59:21.425Z,19.10
2023-05-21T04:01:49.272Z,19.60
2023-05-21T04:04:17.207Z,18.43
2023-05-21T04:06:45.134Z,17.37
2023-05-21T04:09:13.054Z,17.10
2023-05-21T04:11:42.219Z,19.03
2023-05-21T04:14:10.068Z,17.83
2023-05-21T04:16:38.624Z,17.30
2023-05-21T04:19:07.113Z,17.10
2023-05-21T04:21:34.977Z,17.90
2023-05-21T04:24:03.835Z,18.83
2023-05-21T04:26:33.867Z,16.40
2023-05-21T04:29:03.917Z,18.27
2023-05-21T04:31:32.377Z,19.13
2023-05-21T04:34:00.398Z,18.27
2023-05-21T04:36:28.989Z,19.50
2023-05-21T04:38:56.915Z,18.57
2023-05-21T04:41:24.779Z,18.23
2023-05-21T04:43:55.081Z,19.10
2023-05-21T04:46:25.784Z,19.00
2023-05-21T04:48:55.001Z,18.30
2023-05-21T04:51:24.654Z,19.57
2023-05-21T04:53:53.819Z,19.87
2023-05-21T04:56:22.365Z,17.73
2023-05-21T04:58:50.761Z,20.23
2023-05-21T05:01:19.054Z,19.30
2023-05-21T05:03:48.438Z,20.23
2023-05-21T05:06:16.693Z,19.00
2023-05-21T05:08:44.717Z,21.10
2023-05-21T05:11:12.796Z,21.33
2023-05-21T05:13:41.497Z,20.03
2023-05-21T05:16:09.646Z,20.20
2023-05-21T05:18:37.525Z,22.10
2023-05-21T05:21:06.750Z,21.07
2023-05-21T05:23:34.586Z,21.40
2023-05-21T05:26:02.431Z,20.60
2023-05-21T05:28:30.271Z,22.87
2023-05-21T05:30:58.177Z,23.23
2023-05-21T05:33:26.058Z,21.53
2023-05-21T05:35:53.905Z,22.87
2023-05-21T05:38:23.106Z,22.70
2023-05-21T05:40:50.977Z,23.13
2023-05-21T05:43:18.810Z,23.80
2023-05-21T05:45:46.753Z,25.50
2023-05-21T05:48:14.632Z,24.47
2023-05-21T05:50:42.456Z,25.20
2023-05-21T05:53:13.165Z,26.13
2023-05-21T05:55:42.608Z,24.20
2023-05-21T05:58:10.450Z,25.13
2023-05-21T06:00:38.468Z,26.43
2023-05-21T06:03:06.436Z,25.50
2023-05-21T06:05:34.571Z,26.60
2023-05-21T06:08:02.557Z,26.20
2023-05-21T06:10:30.431Z,24.10
2023-05-21T06:12:59.634Z,26.07
2023-05-21T06:15:27.469Z,24.67
2023-05-21T06:17:55.404Z,26.80
2023-05-21T06:20:23.265Z,25.33
2023-05-21T06:22:51.106Z,24.47
2023-05-21T06:25:18.978Z,23.10
2023-05-21T06:27:46.794Z,23.90
2023-05-21T06:30:15.984Z,23.27
2023-05-21T06:32:45.050Z,24.33
2023-05-21T06:35:12.969Z,24.33
2023-05-21T06:37:40.927Z,23.07
2023-05-21T06:40:09.924Z,22.40
2023-05-21T06:42:37.807Z,25.30
2023-05-21T06:45:06.623Z,24.10
2023-05-21T06:47:36.231Z,25.20
2023-05-21T06:50:04.443Z,23.80
2023-05-21T06:52:32.408Z,23.47
2023-05-21T06:55:00.248Z,24.50
2023-05-21T06:57:28.086Z,22.03
2023-05-21T06:59:55.921Z,23.17
2023-05-21T07:02:23.853Z,22.03
2023-05-21T07:04:55.653Z,24.30
2023-05-21T07:07:23.552Z,22.30
2023-05-21T07:09:51.401Z,22.83
2023-05-21T07:12:19.261Z,21.97
2023-05-21T07:14:47.129Z,22.40
2023-05-21T07:17:14.997Z,21.30
2023-05-21T07:19:42.842Z,22.80
2023-05-21T07:22:12.786Z,22.17
2023-05-21T07:24:40.682Z,21.90
2023-05-21T07:27:17.816Z,21.87
2023-05-21T07:29:52.333Z,20.80
2023-05-21T07:32:20.211Z,20.60
2023-05-21T07:34:48.110Z,20.80
2023-05-21T07:37:17.570Z,21.80
2023-05-21T07:39:45.418Z,21.70
2023-05-21T07:42:13.377Z,21.47
2023-05-21T07:44:41.208Z,20.03
2023-05-21T07:47:09.056Z,21.43
2023-05-21T07:49:36.873Z,21.27
2023-05-21T07:52:05.121Z,21.33
2023-05-21T07:54:34.574Z,22.27
2023-05-21T07:57:02.881Z,20.20
2023-05-21T07:59:30.912Z,21.07
2023-05-21T08:01:59.028Z,20.43
2023-05-21T08:04:27.207Z,20.43
2023-05-21T08:06:55.185Z,21.20
2023-05-21T08:09:23.094Z,19.70
2023-05-21T08:11:52.344Z,19.80
2023-05-21T08:14:20.258Z,20.30
2023-05-21T08:16:48.496Z,21.10
2023-05-21T08:19:16.475Z,21.30
2023-05-21T08:21:44.303Z,21.40
2023-05-21T08:24:12.159Z,21.43
2023-05-21T08:26:39.964Z,22.07
2023-05-21T08:29:09.154Z,21.03
2023-05-21T08:31:37.014Z,18.67
2023-05-21T08:34:04.905Z,19.10
2023-05-21T08:36:32.976Z,18.37
2023-05-21T08:39:01.133Z,20.27
2023-05-21T08:41:31.910Z,18.30
2023-05-21T08:44:03.219Z,18.93
2023-05-21T08:46:35.169Z,16.50
2023-05-21T08:49:04.259Z,18.93
2023-05-21T08:51:32.573Z,17.80
2023-05-21T08:54:02.569Z,18.30
2023-05-21T08:56:32.784Z,18.00
2023-05-21T08:59:00.933Z,18.53
2023-05-21T09:01:28.927Z,17.30
2023-05-21T09:04:08.286Z,17.10
2023-05-21T09:06:41.798Z,16.30
2023-05-21T09:09:19.226Z,18.37
2023-05-21T09:11:48.398Z,15.60
2023-05-21T09:14:16.441Z,17.60
2023-05-21T09:16:44.269Z,17.70
2023-05-21T09:19:13.551Z,18.00
2023-05-21T09:21:41.399Z,15.57
2023-05-21T09:24:10.943Z,17.40
2023-05-21T09:26:41.909Z,16.80
2023-05-21T09:29:09.794Z,17.63
2023-05-21T09:31:37.681Z,18.17
2023-05-21T09:34:05.541Z,18.80
2023-05-21T09:36:38.414Z,17.97
2023-05-21T09:39:06.874Z,17.97
2023-05-21T09:41:36.752Z,17.93
2023-05-21T09:44:05.138Z,17.07
2023-05-21T09:46:40.377Z,17.30
2023-05-21T09:49:08.828Z,17.87
2023-05-21T09:51:40.056Z,16.97
2023-05-21T09:54:07.900Z,18.70
2023-05-21T09:56:35.813Z,18.20
2023-05-21T09:59:05.113Z,17.23
2023-05-21T10:01:34.373Z,18.87
2023-05-21T10:04:07.278Z,18.80
2023-05-21T10:06:43.050Z,18.23
2023-05-21T10:09:12.543Z,19.10
2023-05-21T10:11:44.425Z,17.10
2023-05-21T10:14:17.555Z,16.73
2023-05-21T10:16:46.030Z,17.00
2023-05-21T10:19:15.606Z,16.23
2023-05-21T10:21:45.897Z,17.67
2023-05-21T10:24:14.776Z,17.23
2023-05-21T10:26:42.614Z,15.43
2023-05-21T10:29:11.678Z,16.30
2023-05-21T10:31:40.562Z,16.30
2023-05-21T10:34:09.225Z,16.93
2023-05-21T10:36:39.332Z,15.70
2023-05-21T10:39:09.623Z,15.50
2023-05-21T10:41:47.584Z,17.40
2023-05-21T10:44:27.590Z,16.67
2023-05-21T10:47:17.021Z,16.10
2023-05-21T10:49:51.595Z,15.40
2023-05-21T10:52:39.492Z,15.80
2023-05-21T10:55:18.817Z,15.90
2023-05-21T10:58:35.312Z,17.00
2023-05-21T11:01:04.872Z,17.27
2023-05-21T11:03:36.649Z,16.73
2023-05-21T11:06:06.434Z,15.43
2023-05-21T11:08:36.137Z,15.97
2023-05-21T11:11:06.195Z,16.47
2023-05-21T11:13:48.614Z,16.00
2023-05-21T11:16:17.190Z,15.43
2023-05-21T11:19:01.526Z,16.00
2023-05-21T11:21:34.725Z,15.57
2023-05-21T11:24:20.548Z,16.60
2023-05-21T11:27:04.663Z,18.60
2023-05-21T11:29:44.608Z,17.63
2023-05-21T11:32:17.444Z,15.80
2023-05-21T11:34:47.115Z,16.80
2023-05-21T11:37:29.318Z,15.97
2023-05-21T11:39:59.120Z,17.30
2023-05-21T11:42:35.369Z,17.90
2023-05-21T11:45:04.255Z,16.90
2023-05-21T11:47:33.302Z,18.30
2023-05-21T11:50:02.767Z,17.00
2023-05-21T11:52:32.888Z,17.83
2023-05-21T11:55:01.022Z,16.27
2023-05-21T11:57:31.787Z,16.37
2023-05-21T12:00:02.228Z,16.37
2023-05-21T12:02:32.556Z,17.67
2023-05-21T12:05:04.788Z,16.53
2023-05-21T12:07:32.620Z,15.80
2023-05-21T12:10:01.243Z,17.50
2023-05-21T12:12:41.818Z,16.70
2023-05-21T12:15:15.122Z,16.43
2023-05-21T12:17:42.983Z,16.03
2023-05-21T12:20:16.488Z,16.00
2023-05-21T12:22:45.419Z,16.00
2023-05-21T12:25:13.277Z,16.00
2023-05-21T12:27:44.995Z,16.67
2023-05-21T12:30:13.419Z,15.43
2023-05-21T12:32:44.836Z,17.00
2023-05-21T12:35:22.567Z,15.60
2023-05-21T12:37:51.577Z,16.13
2023-05-21T12:40:19.941Z,16.53
2023-05-21T12:42:47.882Z,16.03
2023-05-21T12:45:18.366Z,16.57
2023-05-21T12:47:55.932Z,15.93
2023-05-21T12:50:24.267Z,16.93
2023-05-21T12:52:55.884Z,15.70
2023-05-21T12:55:26.053Z,16.40
2023-05-21T12:58:04.248Z,16.47
2023-05-21T13:00:33.429Z,16.63
2023-05-21T13:03:06.147Z,15.80
2023-05-21T13:05:34.416Z,17.07
2023-05-21T13:08:02.501Z,17.17
2023-05-21T13:10:30.375Z,16.43
2023-05-21T13:12:58.188Z,16.40
2023-05-21T13:15:25.989Z,17.20
2023-05-21T13:17:55.939Z,14.60
2023-05-21T13:20:27.636Z,16.80
2023-05-21T13:22:55.801Z,16.10
2023-05-21T13:25:27.432Z,16.60
2023-05-21T13:27:55.727Z,16.30
2023-05-21T13:30:23.824Z,17.30
2023-05-21T13:32:52.222Z,16.33
2023-05-21T13:35:20.377Z,15.77
2023-05-21T13:37:50.292Z,16.30
2023-05-21T13:40:18.296Z,14.90
2023-05-21T13:42:47.870Z,15.63
2023-05-21T13:45:17.458Z,14.80
2023-05-21T13:47:46.778Z,14.40
2023-05-21T13:50:15.248Z,15.67
2023-05-21T13:52:43.176Z,16.20
2023-05-21T13:55:12.812Z,15.43
2023-05-21T13:57:40.767Z,15.40
2023-05-21T14:00:12.574Z,16.03
2023-05-21T14:02:41.604Z,15.77
2023-05-21T14:05:10.769Z,16.90
2023-05-21T14:07:39.857Z,15.60
2023-05-21T14:10:08.790Z,17.83
2023-05-21T14:12:38.517Z,16.20
2023-05-21T14:15:07.610Z,16.37
2023-05-21T14:17:35.564Z,15.30
2023-05-21T14:20:03.589Z,16.10
2023-05-21T14:22:31.382Z,15.07
2023-05-21T14:24:59.175Z,14.60
2023-05-21T14:27:26.975Z,15.13
2023-05-21T14:29:56.132Z,15.27
2023-05-21T14:32:24.215Z,14.50
2023-05-21T14:34:52.253Z,15.17
2023-05-21T14:37:20.253Z,11.27
2023-05-21T14:39:48.963Z,15.37
2023-05-21T14:42:17.208Z,15.63
2023-05-21T14:44:45.209Z,15.10
2023-05-21T14:47:14.427Z,14.83
2023-05-21T14:49:42.246Z,14.00
2023-05-21T14:52:10.063Z,15.17
2023-05-21T14:54:38.470Z,14.37
2023-05-21T14:57:06.550Z,13.87
2023-05-21T14:59:34.531Z,15.23
2023-05-21T15:02:02.911Z,14.47
2023-05-21T15:04:32.141Z,14.47
2023-05-21T15:07:00.039Z,15.40
2023-05-21T15:09:27.896Z,14.07
2023-05-21T15:11:55.715Z,15.17
2023-05-21T15:14:23.531Z,14.83
2023-05-21T15:16:51.418Z,14.23
2023-05-21T15:19:19.354Z,15.10
2023-05-21T15:21:51.594Z,14.47
2023-05-21T15:24:19.508Z,14.80
2023-05-21T15:26:49.093Z,16.03
2023-05-21T15:29:16.917Z,14.93
2023-05-21T15:31:44.764Z,15.40
2023-05-21T15:34:13.605Z,16.27
2023-05-21T15:36:41.840Z,15.30
2023-05-21T15:39:10.957Z,15.20
2023-05-21T15:41:38.788Z,14.70
2023-05-21T15:44:06.640Z,15.20
2023-05-21T15:46:34.828Z,14.53
2023-05-21T15:49:02.702Z,13.93
2023-05-21T15:51:30.680Z,14.17
2023-05-21T15:53:58.508Z,14.50
2023-05-21T15:56:27.744Z,13.80
2023-05-21T15:58:58.444Z,14.40
2023-05-21T16:01:27.118Z,14.27
2023-05-21T16:03:55.149Z,14.87
2023-05-21T16:06:23.114Z,11.00
2023-05-21T16:08:50.939Z,9.57
2023-05-21T16:11:18.836Z,8.33
2023-05-21T16:13:48.017Z,7.60
2023-05-21T16:16:15.982Z,8.50
2023-05-21T16:18:43.894Z,7.33
2023-05-21T16:21:11.836Z,6.47
2023-05-21T16:23:39.701Z,7.50
2023-05-21T16:26:07.613Z,7.13
2023-05-21T16:28:37.579Z,7.77
2023-05-21T16:31:07.034Z,8.43
2023-05-21T16:33:34.988Z,8.27
2023-05-21T16:36:02.819Z,7.80
2023-05-21T16:38:30.654Z,8.93
2023-05-21T16:40:58.460Z,8.70
2023-05-21T16:43:26.382Z,9.03
2023-05-21T16:45:54.245Z,7.90
2023-05-21T16:48:23.424Z,8.07
2023-05-21T16:50:51.238Z,8.47
2023-05-21T16:53:19.083Z,7.73
2023-05-21T16:55:46.895Z,8.30
2023-05-21T16:58:14.918Z,7.67
2023-05-21T17:00:42.958Z,8.30
2023-05-21T17:03:11.056Z,7.80
2023-05-21T17:05:40.419Z,6.43
2023-05-21T17:08:08.622Z,7.00
2023-05-21T17:10:36.669Z,7.00
2023-05-21T17:13:17.541Z,6.90
2023-05-21T17:15:50.578Z,7.17
2023-05-21T17:18:18.562Z,5.80
2023-05-21T17:20:47.706Z,5.73
2023-05-21T17:23:15.664Z,6.60
2023-05-21T17:25:43.539Z,6.37
2023-05-21T17:28:12.206Z,6.50
2023-05-21T17:30:40.075Z,6.53
2023-05-21T17:33:08.041Z,6.00
2023-05-21T17:35:36.207Z,7.27
2023-05-21T17:38:05.588Z,6.60
2023-05-21T17:40:33.436Z,6.10
2023-05-21T17:43:01.322Z,6.57
2023-05-21T17:45:29.149Z,6.27
2023-05-21T17:47:59.851Z,6.80
2023-05-21T17:50:28.289Z,5.83
2023-05-21T17:52:56.161Z,6.37
2023-05-21T17:55:25.349Z,6.80
2023-05-21T17:57:53.159Z,7.50
2023-05-21T18:00:21.645Z,6.97
2023-05-21T18:02:49.482Z,6.50
2023-05-21T18:05:17.397Z,6.30
2023-05-21T18:07:45.281Z,6.43
2023-05-21T18:10:15.190Z,6.20
2023-05-21T18:12:46.214Z,6.10
2023-05-21T18:15:14.712Z,6.23
2023-05-21T18:17:42.660Z,5.73
2023-05-21T18:20:11.525Z,5.97
2023-05-21T18:22:39.364Z,7.20
2023-05-21T18:25:08.344Z,6.80
2023-05-21T18:27:36.158Z,6.60
2023-05-21T18:30:06.850Z,6.03
2023-05-21T18:32:34.853Z,6.63
2023-05-21T18:35:02.933Z,5.60
2023-05-21T18:37:30.736Z,5.67
2023-05-21T18:39:58.542Z,5.80
2023-05-21T18:42:28.138Z,6.10
2023-05-21T18:44:56.018Z,6.47
2023-05-21T18:47:25.205Z,5.90
2023-05-21T18:49:53.059Z,5.80
2023-05-21T18:52:20.869Z,5.43
2023-05-21T18:54:48.700Z,5.60
2023-05-21T18:57:16.573Z,6.60
2023-05-21T18:59:44.419Z,5.50
2023-05-21T19:02:12.640Z,5.90
2023-05-21T19:04:41.848Z,5.23
2023-05-21T19:07:09.643Z,5.67
2023-05-21T19:09:37.807Z,4.90
2023-05-21T19:12:06.285Z,5.00
2023-05-21T19:14:34.142Z,5.10
2023-05-21T19:17:02.037Z,5.67
2023-05-21T19:19:30.018Z,5.23
2023-05-21T19:21:59.435Z,5.33
2023-05-21T19:24:27.298Z,5.03
2023-05-21T19:26:55.132Z,5.03
2023-05-21T19:29:23.006Z,4.73
2023-05-21T19:31:54.889Z,5.60
2023-05-21T19:34:22.945Z,5.20
2023-05-21T19:36:53.883Z,5.03
2023-05-21T19:39:23.298Z,5.60
2023-05-21T19:41:51.648Z,5.03
2023-05-21T19:44:19.616Z,5.00
2023-05-21T19:46:48.568Z,5.47
2023-05-21T19:49:16.430Z,5.77
2023-05-21T19:51:44.253Z,5.30
2023-05-21T19:54:12.141Z,5.53
2023-05-21T19:56:41.466Z,5.20
2023-05-21T19:59:09.314Z,6.10
2023-05-21T20:01:39.435Z,4.97
2023-05-21T20:04:07.617Z,5.77
2023-05-21T20:06:35.582Z,6.40
2023-05-21T20:09:03.407Z,5.73
2023-05-21T20:11:31.384Z,5.43
2023-05-21T20:14:02.130Z,5.93
2023-05-21T20:16:30.078Z,5.80
2023-05-21T20:18:58.244Z,5.97
2023-05-21T20:21:26.448Z,6.53
2023-05-21T20:23:54.694Z,5.17
2023-05-21T20:26:23.109Z,6.20
2023-05-21T20:28:50.934Z,5.73
2023-05-21T20:31:20.334Z,6.77
2023-05-21T20:33:52.252Z,8.17
2023-05-21T20:36:21.317Z,8.40
2023-05-21T20:38:49.252Z,8.20
2023-05-21T20:41:17.096Z,7.73
2023-05-21T20:43:45.931Z,7.00
2023-05-21T20:46:13.889Z,6.23
2023-05-21T20:48:43.577Z,6.50
2023-05-21T20:51:11.465Z,6.10
2023-05-21T20:53:39.301Z,5.97
2023-05-21T20:56:09.074Z,6.10
2023-05-21T20:58:36.892Z,6.63
2023-05-21T21:01:04.758Z,6.30
2023-05-21T21:03:33.742Z,5.77
2023-05-21T21:06:04.164Z,5.60
2023-05-21T21:08:32.057Z,6.47
2023-05-21T21:10:59.971Z,7.40
2023-05-21T21:13:27.786Z,6.30
2023-05-21T21:15:55.814Z,6.50
2023-05-21T21:18:23.685Z,6.00
2023-05-21T21:20:51.580Z,6.13
2023-05-21T21:23:20.991Z,6.17
2023-05-21T21:25:48.825Z,6.37
2023-05-21T21:28:16.762Z,7.03
2023-05-21T21:30:45.014Z,6.50
2023-05-21T21:33:14.285Z,6.13
2023-05-21T21:35:42.326Z,7.07
2023-05-21T21:38:10.150Z,6.07
2023-05-21T21:40:39.573Z,6.30
2023-05-21T21:43:07.829Z,6.40
2023-05-21T21:45:35.695Z,6.90
2023-05-21T21:48:03.714Z,6.87
2023-05-21T21:50:31.592Z,6.43
2023-05-21T21:52:59.937Z,6.50
2023-05-21T21:55:27.975Z,6.27
2023-05-21T21:57:57.140Z,6.10
2023-05-21T22:00:26.736Z,7.00
2023-05-21T22:02:54.789Z,8.00
2023-05-21T22:05:22.642Z,7.00
2023-05-21T22:07:50.472Z,6.73
2023-05-21T22:10:18.942Z,7.10
2023-05-21T22:12:46.929Z,6.90
2023-05-21T22:15:23.931Z,6.80
2023-05-21T22:17:52.215Z,7.27
2023-05-21T22:20:20.185Z,7.50
2023-05-21T22:22:48.015Z,6.73
2023-05-21T22:25:15.956Z,6.67
2023-05-21T22:27:44.325Z,7.30
2023-05-21T22:30:12.977Z,6.80
2023-05-21T22:32:42.275Z,6.30
2023-05-21T22:35:12.463Z,6.70
2023-05-21T22:37:40.934Z,6.70
2023-05-21T22:40:10.346Z,6.90
2023-05-21T22:42:38.276Z,5.93
2023-05-21T22:45:07.400Z,7.07
2023-05-21T22:47:37.000Z,7.07
2023-05-21T22:50:07.155Z,8.00
2023-05-21T22:52:35.325Z,6.97
2023-05-21T22:55:03.144Z,6.90
2023-05-21T22:57:30.963Z,6.73
2023-05-21T22:59:59.038Z,6.70
2023-05-21T23:02:27.033Z,6.80
2023-05-21T23:04:54.868Z,6.80
2023-05-21T23:07:24.288Z,7.60
2023-05-21T23:09:52.182Z,7.43
2023-05-21T23:12:20.058Z,6.80
2023-05-21T23:14:48.046Z,7.40
2023-05-21T23:17:15.895Z,6.87
2023-05-21T23:19:43.785Z,7.00
2023-05-21T23:22:11.662Z,7.30
2023-05-21T23:24:40.809Z,7.23
2023-05-21T23:27:08.669Z,7.27
2023-05-21T23:29:36.504Z,7.77
2023-05-21T23:32:05.140Z,8.13
2023-05-21T23:34:33.284Z,6.97
2023-05-21T23:37:01.147Z,7.10
2023-05-21T23:39:29.123Z,8.07
2023-05-21T23:41:58.326Z,7.27
2023-05-21T23:44:26.242Z,7.50
2023-05-21T23:46:54.074Z,7.50
2023-05-21T23:49:21.905Z,7.73
2023-05-21T23:51:50.974Z,7.27
2023-05-21T23:54:19.052Z,7.10
2023-05-21T23:56:47.479Z,7.10
2023-05-21T23:59:18.353Z,7.20
